sensor_id;sensor_type;location;lat;lon;timestamp;P1;durP1;ratioP1;P2;durP2;ratioP2
57309;SDS011;43153;50.984;18.204;2024-01-30T00:01:59;19.30;;;6.70;;
57309;SDS011;43153;50.984;18.204;2024-01-30T00:04:27;23.50;;;6.40;;
57309;SDS011;43153;50.984;18.204;2024-01-30T00:06:53;20.70;;;7.10;;
57309;SDS011;43153;50.984;18.204;2024-01-30T00:09:23;20.10;;;6.50;;
57309;SDS011;43153;50.984;18.204;2024-01-30T00:11:52;20.00;;;6.80;;
57309;SDS011;43153;50.984;18.204;2024-01-30T00:14:19;18.20;;;5.40;;
57309;SDS011;43153;50.984;18.204;2024-01-30T00:16:45;22.10;;;6.90;;
57309;SDS011;43153;50.984;18.204;2024-01-30T00:19:10;20.00;;;7.40;;
57309;SDS011;43153;50.984;18.204;2024-01-30T00:21:37;22.60;;;6.20;;
57309;SDS011;43153;50.984;18.204;2024-01-30T00:24:06;17.40;;;6.30;;
57309;SDS011;43153;50.984;18.204;2024-01-30T00:26:34;15.80;;;5.60;;
57309;SDS011;43153;50.984;18.204;2024-01-30T00:29:00;21.50;;;6.30;;
57309;SDS011;43153;50.984;18.204;2024-01-30T00:31:26;17.60;;;4.80;;
57309;SDS011;43153;50.984;18.204;2024-01-30T00:33:54;16.40;;;5.30;;
57309;SDS011;43153;50.984;18.204;2024-01-30T00:36:22;13.10;;;4.60;;
57309;SDS011;43153;50.984;18.204;2024-01-30T00:38:49;18.60;;;5.00;;
57309;SDS011;43153;50.984;18.204;2024-01-30T00:41:17;16.00;;;5.20;;
57309;SDS011;43153;50.984;18.204;2024-01-30T00:43:47;16.50;;;4.70;;
57309;SDS011;43153;50.984;18.204;2024-01-30T00:46:13;20.00;;;7.50;;
57309;SDS011;43153;50.984;18.204;2024-01-30T00:48:39;15.50;;;5.00;;
57309;SDS011;43153;50.984;18.204;2024-01-30T00:51:05;16.10;;;6.00;;
57309;SDS011;43153;50.984;18.204;2024-01-30T00:53:36;16.30;;;5.30;;
57309;SDS011;43153;50.984;18.204;2024-01-30T00:56:03;14.00;;;5.00;;
57309;SDS011;43153;50.984;18.204;2024-01-30T00:58:29;19.70;;;6.10;;
57309;SDS011;43153;50.984;18.204;2024-01-30T01:00:56;16.40;;;4.70;;
57309;SDS011;43153;50.984;18.204;2024-01-30T01:03:22;14.10;;;4.50;;
57309;SDS011;43153;50.984;18.204;2024-01-30T01:05:49;14.30;;;4.40;;
57309;SDS011;43153;50.984;18.204;2024-01-30T01:08:19;15.00;;;4.50;;
57309;SDS011;43153;50.984;18.204;2024-01-30T01:10:46;16.50;;;4.40;;
57309;SDS011;43153;50.984;18.204;2024-01-30T01:13:12;14.90;;;5.10;;
57309;SDS011;43153;50.984;18.204;2024-01-30T01:15:38;17.40;;;4.60;;
57309;SDS011;43153;50.984;18.204;2024-01-30T01:18:05;13.90;;;4.80;;
57309;SDS011;43153;50.984;18.204;2024-01-30T01:20:33;14.00;;;4.70;;
57309;SDS011;43153;50.984;18.204;2024-01-30T01:22:59;13.00;;;4.60;;
57309;SDS011;43153;50.984;18.204;2024-01-30T01:25:28;12.40;;;5.30;;
57309;SDS011;43153;50.984;18.204;2024-01-30T01:27:54;11.30;;;4.50;;
57309;SDS011;43153;50.984;18.204;2024-01-30T01:30:24;15.30;;;4.70;;
57309;SDS011;43153;50.984;18.204;2024-01-30T01:32:51;17.40;;;4.70;;
57309;SDS011;43153;50.984;18.204;2024-01-30T01:35:23;13.60;;;4.40;;
57309;SDS011;43153;50.984;18.204;2024-01-30T01:37:54;16.40;;;5.40;;
57309;SDS011;43153;50.984;18.204;2024-01-30T01:40:22;13.70;;;5.30;;
57309;SDS011;43153;50.984;18.204;2024-01-30T01:42:49;13.70;;;5.00;;
57309;SDS011;43153;50.984;18.204;2024-01-30T01:45:18;16.00;;;5.00;;
57309;SDS011;43153;50.984;18.204;2024-01-30T01:47:45;13.80;;;4.30;;
57309;SDS011;43153;50.984;18.204;2024-01-30T01:50:16;16.30;;;4.80;;
57309;SDS011;43153;50.984;18.204;2024-01-30T01:52:47;11.10;;;4.70;;
57309;SDS011;43153;50.984;18.204;2024-01-30T01:55:14;18.10;;;5.80;;
57309;SDS011;43153;50.984;18.204;2024-01-30T01:57:44;12.50;;;5.00;;
57309;SDS011;43153;50.984;18.204;2024-01-30T02:00:13;18.90;;;6.10;;
57309;SDS011;43153;50.984;18.204;2024-01-30T02:02:40;12.70;;;5.20;;
57309;SDS011;43153;50.984;18.204;2024-01-30T02:05:09;16.40;;;4.90;;
57309;SDS011;43153;50.984;18.204;2024-01-30T02:07:39;18.80;;;6.30;;
57309;SDS011;43153;50.984;18.204;2024-01-30T02:10:10;24.20;;;7.10;;
57309;SDS011;43153;50.984;18.204;2024-01-30T02:12:36;27.30;;;8.30;;
57309;SDS011;43153;50.984;18.204;2024-01-30T02:15:02;22.90;;;7.70;;
57309;SDS011;43153;50.984;18.204;2024-01-30T02:17:33;15.60;;;6.00;;
57309;SDS011;43153;50.984;18.204;2024-01-30T02:19:59;17.10;;;5.50;;
57309;SDS011;43153;50.984;18.204;2024-01-30T02:22:25;14.10;;;5.50;;
57309;SDS011;43153;50.984;18.204;2024-01-30T02:24:53;17.30;;;5.80;;
57309;SDS011;43153;50.984;18.204;2024-01-30T02:27:19;15.80;;;5.30;;
57309;SDS011;43153;50.984;18.204;2024-01-30T02:29:48;15.50;;;5.80;;
57309;SDS011;43153;50.984;18.204;2024-01-30T02:32:15;19.40;;;6.40;;
57309;SDS011;43153;50.984;18.204;2024-01-30T02:34:42;14.10;;;5.90;;
57309;SDS011;43153;50.984;18.204;2024-01-30T02:37:09;17.10;;;5.80;;
57309;SDS011;43153;50.984;18.204;2024-01-30T02:39:37;15.50;;;5.00;;
57309;SDS011;43153;50.984;18.204;2024-01-30T02:42:03;17.10;;;4.80;;
57309;SDS011;43153;50.984;18.204;2024-01-30T02:44:31;13.50;;;5.00;;
57309;SDS011;43153;50.984;18.204;2024-01-30T02:46:57;19.10;;;6.00;;
57309;SDS011;43153;50.984;18.204;2024-01-30T02:49:25;16.00;;;4.90;;
57309;SDS011;43153;50.984;18.204;2024-01-30T02:51:53;11.80;;;4.80;;
57309;SDS011;43153;50.984;18.204;2024-01-30T02:54:23;15.40;;;5.70;;
57309;SDS011;43153;50.984;18.204;2024-01-30T02:56:51;15.60;;;5.40;;
57309;SDS011;43153;50.984;18.204;2024-01-30T02:59:17;14.90;;;5.10;;
57309;SDS011;43153;50.984;18.204;2024-01-30T03:01:43;14.50;;;4.90;;
57309;SDS011;43153;50.984;18.204;2024-01-30T03:04:09;12.80;;;5.70;;
57309;SDS011;43153;50.984;18.204;2024-01-30T03:06:36;17.50;;;6.20;;
57309;SDS011;43153;50.984;18.204;2024-01-30T03:09:02;14.20;;;5.20;;
57309;SDS011;43153;50.984;18.204;2024-01-30T03:11:30;14.70;;;5.50;;
57309;SDS011;43153;50.984;18.204;2024-01-30T03:14:03;15.30;;;4.90;;
57309;SDS011;43153;50.984;18.204;2024-01-30T03:16:32;18.70;;;6.30;;
57309;SDS011;43153;50.984;18.204;2024-01-30T03:18:58;23.50;;;6.80;;
57309;SDS011;43153;50.984;18.204;2024-01-30T03:21:28;21.50;;;6.10;;
57309;SDS011;43153;50.984;18.204;2024-01-30T03:23:56;21.40;;;7.20;;
57309;SDS011;43153;50.984;18.204;2024-01-30T03:26:23;22.50;;;7.00;;
57309;SDS011;43153;50.984;18.204;2024-01-30T03:28:52;17.00;;;6.80;;
57309;SDS011;43153;50.984;18.204;2024-01-30T03:31:18;18.70;;;6.20;;
57309;SDS011;43153;50.984;18.204;2024-01-30T03:33:46;17.40;;;7.30;;
57309;SDS011;43153;50.984;18.204;2024-01-30T03:36:12;19.80;;;8.10;;
57309;SDS011;43153;50.984;18.204;2024-01-30T03:38:41;21.10;;;7.00;;
57309;SDS011;43153;50.984;18.204;2024-01-30T03:41:08;21.80;;;7.60;;
57309;SDS011;43153;50.984;18.204;2024-01-30T03:43:36;17.30;;;5.90;;
57309;SDS011;43153;50.984;18.204;2024-01-30T03:46:03;17.80;;;6.80;;
57309;SDS011;43153;50.984;18.204;2024-01-30T03:48:29;19.30;;;7.30;;
57309;SDS011;43153;50.984;18.204;2024-01-30T03:50:55;15.60;;;6.40;;
57309;SDS011;43153;50.984;18.204;2024-01-30T03:53:25;17.70;;;5.90;;
57309;SDS011;43153;50.984;18.204;2024-01-30T03:55:51;18.80;;;6.10;;
57309;SDS011;43153;50.984;18.204;2024-01-30T03:58:17;18.70;;;6.40;;
57309;SDS011;43153;50.984;18.204;2024-01-30T04:00:43;22.00;;;7.20;;
57309;SDS011;43153;50.984;18.204;2024-01-30T04:03:17;19.10;;;6.00;;
57309;SDS011;43153;50.984;18.204;2024-01-30T04:05:43;14.80;;;6.00;;
57309;SDS011;43153;50.984;18.204;2024-01-30T04:08:11;14.60;;;5.70;;
57309;SDS011;43153;50.984;18.204;2024-01-30T04:10:40;17.50;;;6.10;;
57309;SDS011;43153;50.984;18.204;2024-01-30T04:13:09;17.30;;;5.90;;
57309;SDS011;43153;50.984;18.204;2024-01-30T04:15:40;15.50;;;6.10;;
57309;SDS011;43153;50.984;18.204;2024-01-30T04:18:10;21.20;;;7.10;;
57309;SDS011;43153;50.984;18.204;2024-01-30T04:20:39;15.90;;;6.00;;
57309;SDS011;43153;50.984;18.204;2024-01-30T04:23:07;19.90;;;7.40;;
57309;SDS011;43153;50.984;18.204;2024-01-30T04:25:37;20.20;;;7.60;;
57309;SDS011;43153;50.984;18.204;2024-01-30T04:28:06;22.20;;;6.40;;
57309;SDS011;43153;50.984;18.204;2024-01-30T04:30:33;16.20;;;6.40;;
57309;SDS011;43153;50.984;18.204;2024-01-30T04:32:59;16.10;;;6.00;;
57309;SDS011;43153;50.984;18.204;2024-01-30T04:35:27;19.10;;;7.60;;
57309;SDS011;43153;50.984;18.204;2024-01-30T04:37:52;17.10;;;5.80;;
57309;SDS011;43153;50.984;18.204;2024-01-30T04:40:19;16.90;;;6.40;;
57309;SDS011;43153;50.984;18.204;2024-01-30T04:42:46;20.60;;;7.80;;
57309;SDS011;43153;50.984;18.204;2024-01-30T04:45:17;19.50;;;6.60;;
57309;SDS011;43153;50.984;18.204;2024-01-30T04:47:49;24.40;;;9.70;;
57309;SDS011;43153;50.984;18.204;2024-01-30T04:50:17;26.20;;;10.30;;
57309;SDS011;43153;50.984;18.204;2024-01-30T04:52:46;17.40;;;8.00;;
57309;SDS011;43153;50.984;18.204;2024-01-30T04:55:12;18.40;;;6.60;;
57309;SDS011;43153;50.984;18.204;2024-01-30T04:57:39;14.70;;;5.80;;
57309;SDS011;43153;50.984;18.204;2024-01-30T05:00:08;15.60;;;6.90;;
57309;SDS011;43153;50.984;18.204;2024-01-30T05:02:35;16.30;;;5.80;;
57309;SDS011;43153;50.984;18.204;2024-01-30T05:05:03;16.80;;;6.30;;
57309;SDS011;43153;50.984;18.204;2024-01-30T05:07:31;20.30;;;6.30;;
57309;SDS011;43153;50.984;18.204;2024-01-30T05:09:56;18.30;;;5.40;;
57309;SDS011;43153;50.984;18.204;2024-01-30T05:12:28;18.50;;;6.50;;
57309;SDS011;43153;50.984;18.204;2024-01-30T05:14:55;18.60;;;7.10;;
57309;SDS011;43153;50.984;18.204;2024-01-30T05:17:20;19.30;;;6.40;;
57309;SDS011;43153;50.984;18.204;2024-01-30T05:19:49;21.60;;;6.90;;
57309;SDS011;43153;50.984;18.204;2024-01-30T05:22:14;16.50;;;6.20;;
57309;SDS011;43153;50.984;18.204;2024-01-30T05:24:41;19.10;;;7.30;;
57309;SDS011;43153;50.984;18.204;2024-01-30T05:27:08;20.70;;;6.90;;
57309;SDS011;43153;50.984;18.204;2024-01-30T05:29:40;26.00;;;8.80;;
57309;SDS011;43153;50.984;18.204;2024-01-30T05:32:06;28.20;;;10.00;;
57309;SDS011;43153;50.984;18.204;2024-01-30T05:34:39;35.40;;;12.40;;
57309;SDS011;43153;50.984;18.204;2024-01-30T05:37:06;40.70;;;17.50;;
57309;SDS011;43153;50.984;18.204;2024-01-30T05:39:35;45.40;;;13.70;;
57309;SDS011;43153;50.984;18.204;2024-01-30T05:42:02;33.90;;;12.30;;
57309;SDS011;43153;50.984;18.204;2024-01-30T05:44:34;28.40;;;9.60;;
57309;SDS011;43153;50.984;18.204;2024-01-30T05:47:00;43.40;;;15.80;;
57309;SDS011;43153;50.984;18.204;2024-01-30T05:49:31;82.60;;;23.70;;
57309;SDS011;43153;50.984;18.204;2024-01-30T05:52:03;70.10;;;24.20;;
57309;SDS011;43153;50.984;18.204;2024-01-30T05:54:33;74.60;;;22.50;;
57309;SDS011;43153;50.984;18.204;2024-01-30T05:57:06;59.00;;;21.50;;
57309;SDS011;43153;50.984;18.204;2024-01-30T05:59:31;54.70;;;21.60;;
57309;SDS011;43153;50.984;18.204;2024-01-30T06:01:57;49.00;;;17.10;;
57309;SDS011;43153;50.984;18.204;2024-01-30T06:04:26;33.40;;;13.10;;
57309;SDS011;43153;50.984;18.204;2024-01-30T06:06:58;29.00;;;11.80;;
57309;SDS011;43153;50.984;18.204;2024-01-30T06:09:27;27.00;;;9.80;;
57309;SDS011;43153;50.984;18.204;2024-01-30T06:14:24;38.10;;;10.90;;
57309;SDS011;43153;50.984;18.204;2024-01-30T06:16:51;32.80;;;10.40;;
57309;SDS011;43153;50.984;18.204;2024-01-30T06:19:16;41.00;;;11.30;;
57309;SDS011;43153;50.984;18.204;2024-01-30T06:21:45;34.90;;;12.10;;
57309;SDS011;43153;50.984;18.204;2024-01-30T06:24:13;32.40;;;11.80;;
57309;SDS011;43153;50.984;18.204;2024-01-30T06:26:40;26.40;;;9.20;;
57309;SDS011;43153;50.984;18.204;2024-01-30T06:29:09;25.40;;;9.40;;
57309;SDS011;43153;50.984;18.204;2024-01-30T06:31:41;20.70;;;7.80;;
57309;SDS011;43153;50.984;18.204;2024-01-30T06:34:15;20.90;;;8.70;;
57309;SDS011;43153;50.984;18.204;2024-01-30T06:39:11;21.40;;;9.20;;
57309;SDS011;43153;50.984;18.204;2024-01-30T06:41:37;20.30;;;8.40;;
57309;SDS011;43153;50.984;18.204;2024-01-30T06:44:06;23.60;;;9.30;;
57309;SDS011;43153;50.984;18.204;2024-01-30T06:46:33;29.10;;;8.30;;
57309;SDS011;43153;50.984;18.204;2024-01-30T06:49:07;27.10;;;9.00;;
57309;SDS011;43153;50.984;18.204;2024-01-30T06:51:33;27.60;;;10.30;;
57309;SDS011;43153;50.984;18.204;2024-01-30T06:53:59;46.90;;;15.10;;
57309;SDS011;43153;50.984;18.204;2024-01-30T06:56:25;39.20;;;12.20;;
57309;SDS011;43153;50.984;18.204;2024-01-30T06:58:54;40.70;;;14.70;;
57309;SDS011;43153;50.984;18.204;2024-01-30T07:01:27;40.00;;;15.10;;
57309;SDS011;43153;50.984;18.204;2024-01-30T07:03:57;30.20;;;13.30;;
57309;SDS011;43153;50.984;18.204;2024-01-30T07:06:23;26.00;;;10.20;;
57309;SDS011;43153;50.984;18.204;2024-01-30T07:09:10;62.60;;;18.40;;
57309;SDS011;43153;50.984;18.204;2024-01-30T07:11:39;84.00;;;28.00;;
57309;SDS011;43153;50.984;18.204;2024-01-30T07:14:08;68.30;;;24.40;;
57309;SDS011;43153;50.984;18.204;2024-01-30T07:16:34;66.10;;;23.70;;
57309;SDS011;43153;50.984;18.204;2024-01-30T07:19:05;50.60;;;18.10;;
57309;SDS011;43153;50.984;18.204;2024-01-30T07:21:31;39.70;;;15.20;;
57309;SDS011;43153;50.984;18.204;2024-01-30T07:23:57;33.90;;;13.60;;
57309;SDS011;43153;50.984;18.204;2024-01-30T07:26:22;35.80;;;14.30;;
57309;SDS011;43153;50.984;18.204;2024-01-30T07:28:53;28.30;;;10.40;;
57309;SDS011;43153;50.984;18.204;2024-01-30T07:31:19;22.70;;;8.80;;
57309;SDS011;43153;50.984;18.204;2024-01-30T07:33:49;23.90;;;9.00;;
57309;SDS011;43153;50.984;18.204;2024-01-30T07:36:15;19.00;;;8.50;;
57309;SDS011;43153;50.984;18.204;2024-01-30T07:38:43;19.80;;;7.70;;
57309;SDS011;43153;50.984;18.204;2024-01-30T07:41:11;19.20;;;7.50;;
57309;SDS011;43153;50.984;18.204;2024-01-30T07:43:38;23.10;;;7.50;;
57309;SDS011;43153;50.984;18.204;2024-01-30T07:46:08;26.50;;;8.40;;
57309;SDS011;43153;50.984;18.204;2024-01-30T07:48:37;37.20;;;9.60;;
57309;SDS011;43153;50.984;18.204;2024-01-30T07:51:03;50.90;;;14.90;;
57309;SDS011;43153;50.984;18.204;2024-01-30T07:53:29;43.30;;;13.40;;
57309;SDS011;43153;50.984;18.204;2024-01-30T07:55:57;59.30;;;16.30;;
57309;SDS011;43153;50.984;18.204;2024-01-30T07:58:23;60.90;;;18.10;;
57309;SDS011;43153;50.984;18.204;2024-01-30T08:00:49;46.80;;;17.30;;
57309;SDS011;43153;50.984;18.204;2024-01-30T08:03:22;42.70;;;15.40;;
57309;SDS011;43153;50.984;18.204;2024-01-30T08:05:48;29.70;;;11.20;;
57309;SDS011;43153;50.984;18.204;2024-01-30T08:15:51;17.70;;;6.70;;
57309;SDS011;43153;50.984;18.204;2024-01-30T08:18:17;17.00;;;6.10;;
57309;SDS011;43153;50.984;18.204;2024-01-30T08:20:48;19.40;;;6.60;;
57309;SDS011;43153;50.984;18.204;2024-01-30T08:23:15;21.60;;;7.00;;
57309;SDS011;43153;50.984;18.204;2024-01-30T08:25:44;28.40;;;11.90;;
57309;SDS011;43153;50.984;18.204;2024-01-30T08:28:14;37.20;;;13.10;;
57309;SDS011;43153;50.984;18.204;2024-01-30T08:30:45;31.00;;;11.40;;
57309;SDS011;43153;50.984;18.204;2024-01-30T08:33:14;41.90;;;14.70;;
57309;SDS011;43153;50.984;18.204;2024-01-30T08:35:40;35.30;;;12.90;;
57309;SDS011;43153;50.984;18.204;2024-01-30T08:38:07;35.60;;;12.10;;
57309;SDS011;43153;50.984;18.204;2024-01-30T08:40:35;32.00;;;11.00;;
57309;SDS011;43153;50.984;18.204;2024-01-30T08:43:10;24.40;;;10.30;;
57309;SDS011;43153;50.984;18.204;2024-01-30T08:45:36;24.70;;;9.50;;
57309;SDS011;43153;50.984;18.204;2024-01-30T08:48:02;18.80;;;7.40;;
57309;SDS011;43153;50.984;18.204;2024-01-30T08:50:29;20.00;;;7.90;;
57309;SDS011;43153;50.984;18.204;2024-01-30T08:52:55;18.30;;;6.30;;
57309;SDS011;43153;50.984;18.204;2024-01-30T08:57:54;19.30;;;7.00;;
57309;SDS011;43153;50.984;18.204;2024-01-30T09:00:21;16.00;;;7.10;;
57309;SDS011;43153;50.984;18.204;2024-01-30T09:02:47;20.00;;;9.10;;
57309;SDS011;43153;50.984;18.204;2024-01-30T09:05:14;20.00;;;8.30;;
57309;SDS011;43153;50.984;18.204;2024-01-30T09:07:45;52.80;;;17.50;;
57309;SDS011;43153;50.984;18.204;2024-01-30T09:10:11;28.90;;;11.70;;
57309;SDS011;43153;50.984;18.204;2024-01-30T09:12:37;28.10;;;9.70;;
57309;SDS011;43153;50.984;18.204;2024-01-30T09:15:05;21.00;;;7.90;;
57309;SDS011;43153;50.984;18.204;2024-01-30T09:17:34;25.30;;;11.00;;
57309;SDS011;43153;50.984;18.204;2024-01-30T09:20:11;18.10;;;7.70;;
57309;SDS011;43153;50.984;18.204;2024-01-30T09:22:40;16.50;;;6.60;;
57309;SDS011;43153;50.984;18.204;2024-01-30T09:25:11;19.50;;;7.50;;
57309;SDS011;43153;50.984;18.204;2024-01-30T09:27:39;15.90;;;7.00;;
57309;SDS011;43153;50.984;18.204;2024-01-30T09:30:09;16.00;;;6.50;;
57309;SDS011;43153;50.984;18.204;2024-01-30T09:32:36;15.90;;;6.30;;
57309;SDS011;43153;50.984;18.204;2024-01-30T09:35:03;15.80;;;6.20;;
57309;SDS011;43153;50.984;18.204;2024-01-30T09:37:29;17.80;;;6.20;;
57309;SDS011;43153;50.984;18.204;2024-01-30T09:39:58;14.10;;;6.20;;
57309;SDS011;43153;50.984;18.204;2024-01-30T10:23:02;15.90;;;5.30;;
57309;SDS011;43153;50.984;18.204;2024-01-30T10:25:33;16.20;;;6.90;;
57309;SDS011;43153;50.984;18.204;2024-01-30T10:28:00;24.10;;;8.90;;
57309;SDS011;43153;50.984;18.204;2024-01-30T10:30:29;15.70;;;6.60;;
57309;SDS011;43153;50.984;18.204;2024-01-30T10:32:55;13.50;;;5.50;;
57309;SDS011;43153;50.984;18.204;2024-01-30T10:35:21;15.20;;;5.30;;
57309;SDS011;43153;50.984;18.204;2024-01-30T10:37:51;19.00;;;7.30;;
57309;SDS011;43153;50.984;18.204;2024-01-30T10:40:17;15.70;;;6.80;;
57309;SDS011;43153;50.984;18.204;2024-01-30T10:42:46;14.00;;;5.50;;
57309;SDS011;43153;50.984;18.204;2024-01-30T10:45:15;13.10;;;5.30;;
57309;SDS011;43153;50.984;18.204;2024-01-30T10:47:48;14.40;;;6.30;;
57309;SDS011;43153;50.984;18.204;2024-01-30T10:50:18;16.60;;;5.60;;
57309;SDS011;43153;50.984;18.204;2024-01-30T10:52:47;15.20;;;5.10;;
57309;SDS011;43153;50.984;18.204;2024-01-30T10:55:15;14.60;;;4.90;;
57309;SDS011;43153;50.984;18.204;2024-01-30T10:57:48;12.60;;;5.10;;
57309;SDS011;43153;50.984;18.204;2024-01-30T11:00:16;13.80;;;5.10;;
57309;SDS011;43153;50.984;18.204;2024-01-30T11:02:46;11.40;;;4.90;;
57309;SDS011;43153;50.984;18.204;2024-01-30T11:05:14;11.60;;;5.00;;
57309;SDS011;43153;50.984;18.204;2024-01-30T11:07:53;12.00;;;4.90;;
57309;SDS011;43153;50.984;18.204;2024-01-30T11:10:19;10.20;;;4.10;;
57309;SDS011;43153;50.984;18.204;2024-01-30T11:12:45;12.70;;;5.40;;
57309;SDS011;43153;50.984;18.204;2024-01-30T11:15:17;12.20;;;4.40;;
57309;SDS011;43153;50.984;18.204;2024-01-30T11:20:16;12.30;;;5.40;;
57309;SDS011;43153;50.984;18.204;2024-01-30T11:22:51;14.80;;;4.50;;
57309;SDS011;43153;50.984;18.204;2024-01-30T11:25:22;13.40;;;5.20;;
57309;SDS011;43153;50.984;18.204;2024-01-30T11:27:54;11.60;;;4.40;;
57309;SDS011;43153;50.984;18.204;2024-01-30T11:35:38;10.70;;;3.60;;
57309;SDS011;43153;50.984;18.204;2024-01-30T11:38:05;12.20;;;4.20;;
57309;SDS011;43153;50.984;18.204;2024-01-30T11:40:34;35.40;;;9.80;;
57309;SDS011;43153;50.984;18.204;2024-01-30T11:43:03;22.60;;;7.40;;
57309;SDS011;43153;50.984;18.204;2024-01-30T11:45:34;30.30;;;10.80;;
57309;SDS011;43153;50.984;18.204;2024-01-30T11:48:01;20.10;;;7.50;;
57309;SDS011;43153;50.984;18.204;2024-01-30T11:50:30;18.70;;;5.90;;
57309;SDS011;43153;50.984;18.204;2024-01-30T11:53:00;12.00;;;4.20;;
57309;SDS011;43153;50.984;18.204;2024-01-30T11:55:26;19.50;;;6.70;;
57309;SDS011;43153;50.984;18.204;2024-01-30T11:57:59;14.70;;;6.10;;
57309;SDS011;43153;50.984;18.204;2024-01-30T12:00:25;22.30;;;7.50;;
57309;SDS011;43153;50.984;18.204;2024-01-30T12:02:56;14.00;;;5.50;;
57309;SDS011;43153;50.984;18.204;2024-01-30T12:05:23;13.80;;;5.30;;
57309;SDS011;43153;50.984;18.204;2024-01-30T12:07:49;12.80;;;5.50;;
57309;SDS011;43153;50.984;18.204;2024-01-30T12:10:18;12.10;;;4.70;;
57309;SDS011;43153;50.984;18.204;2024-01-30T12:12:47;11.70;;;4.30;;
57309;SDS011;43153;50.984;18.204;2024-01-30T12:15:16;10.80;;;4.70;;
57309;SDS011;43153;50.984;18.204;2024-01-30T12:17:46;15.70;;;4.90;;
57309;SDS011;43153;50.984;18.204;2024-01-30T12:20:17;13.70;;;5.00;;
57309;SDS011;43153;50.984;18.204;2024-01-30T12:22:44;11.60;;;4.30;;
57309;SDS011;43153;50.984;18.204;2024-01-30T12:25:20;13.30;;;5.10;;
57309;SDS011;43153;50.984;18.204;2024-01-30T12:27:52;18.10;;;6.20;;
57309;SDS011;43153;50.984;18.204;2024-01-30T12:30:20;29.70;;;11.30;;
57309;SDS011;43153;50.984;18.204;2024-01-30T12:32:47;41.40;;;14.50;;
57309;SDS011;43153;50.984;18.204;2024-01-30T12:35:20;42.60;;;14.00;;
57309;SDS011;43153;50.984;18.204;2024-01-30T12:37:50;34.10;;;12.00;;
57309;SDS011;43153;50.984;18.204;2024-01-30T12:40:18;35.90;;;11.90;;
57309;SDS011;43153;50.984;18.204;2024-01-30T12:42:46;33.30;;;12.30;;
57309;SDS011;43153;50.984;18.204;2024-01-30T12:45:19;18.50;;;7.80;;
57309;SDS011;43153;50.984;18.204;2024-01-30T12:47:47;18.30;;;7.10;;
57309;SDS011;43153;50.984;18.204;2024-01-30T12:50:19;13.20;;;4.80;;
57309;SDS011;43153;50.984;18.204;2024-01-30T12:52:54;12.40;;;5.60;;
57309;SDS011;43153;50.984;18.204;2024-01-30T12:55:25;19.70;;;7.20;;
57309;SDS011;43153;50.984;18.204;2024-01-30T12:57:54;15.90;;;5.50;;
57309;SDS011;43153;50.984;18.204;2024-01-30T13:00:27;8.50;;;3.30;;
57309;SDS011;43153;50.984;18.204;2024-01-30T13:02:53;8.30;;;3.30;;
57309;SDS011;43153;50.984;18.204;2024-01-30T13:05:21;8.60;;;3.30;;
57309;SDS011;43153;50.984;18.204;2024-01-30T13:07:47;9.10;;;3.30;;
57309;SDS011;43153;50.984;18.204;2024-01-30T13:10:14;8.60;;;2.70;;
57309;SDS011;43153;50.984;18.204;2024-01-30T13:12:41;8.60;;;2.90;;
57309;SDS011;43153;50.984;18.204;2024-01-30T13:15:08;10.20;;;3.50;;
57309;SDS011;43153;50.984;18.204;2024-01-30T13:17:34;10.80;;;3.90;;
57309;SDS011;43153;50.984;18.204;2024-01-30T13:20:03;14.30;;;3.50;;
57309;SDS011;43153;50.984;18.204;2024-01-30T13:22:33;11.40;;;3.30;;
57309;SDS011;43153;50.984;18.204;2024-01-30T13:25:00;8.10;;;2.70;;
57309;SDS011;43153;50.984;18.204;2024-01-30T13:27:26;8.00;;;3.10;;
57309;SDS011;43153;50.984;18.204;2024-01-30T13:29:51;9.70;;;3.40;;
57309;SDS011;43153;50.984;18.204;2024-01-30T13:32:23;20.90;;;6.70;;
57309;SDS011;43153;50.984;18.204;2024-01-30T13:34:49;15.40;;;4.50;;
57309;SDS011;43153;50.984;18.204;2024-01-30T13:37:17;21.70;;;7.10;;
57309;SDS011;43153;50.984;18.204;2024-01-30T13:39:43;29.40;;;10.40;;
57309;SDS011;43153;50.984;18.204;2024-01-30T13:42:09;25.70;;;8.50;;
57309;SDS011;43153;50.984;18.204;2024-01-30T13:44:35;13.60;;;4.10;;
57309;SDS011;43153;50.984;18.204;2024-01-30T13:47:04;11.20;;;4.80;;
57309;SDS011;43153;50.984;18.204;2024-01-30T13:49:32;12.30;;;3.90;;
57309;SDS011;43153;50.984;18.204;2024-01-30T13:51:57;19.80;;;3.70;;
57309;SDS011;43153;50.984;18.204;2024-01-30T13:54:24;9.30;;;3.70;;
57309;SDS011;43153;50.984;18.204;2024-01-30T13:56:52;8.80;;;3.30;;
57309;SDS011;43153;50.984;18.204;2024-01-30T13:59:18;13.80;;;3.50;;
57309;SDS011;43153;50.984;18.204;2024-01-30T14:01:50;10.70;;;4.10;;
57309;SDS011;43153;50.984;18.204;2024-01-30T14:04:19;17.60;;;4.50;;
57309;SDS011;43153;50.984;18.204;2024-01-30T14:06:46;9.60;;;3.60;;
57309;SDS011;43153;50.984;18.204;2024-01-30T14:09:15;11.70;;;4.40;;
57309;SDS011;43153;50.984;18.204;2024-01-30T14:11:43;12.50;;;3.80;;
57309;SDS011;43153;50.984;18.204;2024-01-30T14:14:09;15.40;;;4.40;;
57309;SDS011;43153;50.984;18.204;2024-01-30T14:16:41;11.10;;;4.30;;
57309;SDS011;43153;50.984;18.204;2024-01-30T14:19:08;10.50;;;4.00;;
57309;SDS011;43153;50.984;18.204;2024-01-30T14:21:37;10.90;;;4.00;;
57309;SDS011;43153;50.984;18.204;2024-01-30T14:24:14;16.20;;;7.00;;
57309;SDS011;43153;50.984;18.204;2024-01-30T14:26:50;13.60;;;5.90;;
57309;SDS011;43153;50.984;18.204;2024-01-30T14:29:25;17.30;;;5.70;;
57309;SDS011;43153;50.984;18.204;2024-01-30T14:31:57;11.60;;;4.40;;
57309;SDS011;43153;50.984;18.204;2024-01-30T14:34:27;11.30;;;4.70;;
57309;SDS011;43153;50.984;18.204;2024-01-30T14:37:03;11.70;;;4.20;;
57309;SDS011;43153;50.984;18.204;2024-01-30T14:39:29;14.90;;;4.60;;
57309;SDS011;43153;50.984;18.204;2024-01-30T14:41:57;14.00;;;5.50;;
57309;SDS011;43153;50.984;18.204;2024-01-30T14:44:27;11.10;;;5.00;;
57309;SDS011;43153;50.984;18.204;2024-01-30T14:46:53;19.60;;;8.00;;
57309;SDS011;43153;50.984;18.204;2024-01-30T14:49:24;16.70;;;7.00;;
57309;SDS011;43153;50.984;18.204;2024-01-30T14:51:57;17.10;;;6.60;;
57309;SDS011;43153;50.984;18.204;2024-01-30T14:54:24;18.10;;;6.20;;
57309;SDS011;43153;50.984;18.204;2024-01-30T14:56:52;15.20;;;5.60;;
57309;SDS011;43153;50.984;18.204;2024-01-30T14:59:18;14.60;;;5.40;;
57309;SDS011;43153;50.984;18.204;2024-01-30T15:01:47;14.00;;;5.50;;
57309;SDS011;43153;50.984;18.204;2024-01-30T15:04:17;13.60;;;5.20;;
57309;SDS011;43153;50.984;18.204;2024-01-30T15:06:45;12.40;;;5.30;;
57309;SDS011;43153;50.984;18.204;2024-01-30T15:09:14;11.50;;;4.00;;
57309;SDS011;43153;50.984;18.204;2024-01-30T15:11:43;17.70;;;5.70;;
57309;SDS011;43153;50.984;18.204;2024-01-30T15:14:15;10.00;;;4.60;;
57309;SDS011;43153;50.984;18.204;2024-01-30T15:16:40;15.50;;;6.20;;
57309;SDS011;43153;50.984;18.204;2024-01-30T15:19:12;12.50;;;5.60;;
57309;SDS011;43153;50.984;18.204;2024-01-30T15:21:41;14.00;;;5.40;;
57309;SDS011;43153;50.984;18.204;2024-01-30T15:24:13;13.10;;;5.10;;
57309;SDS011;43153;50.984;18.204;2024-01-30T15:26:41;15.50;;;5.90;;
57309;SDS011;43153;50.984;18.204;2024-01-30T15:29:07;15.20;;;5.90;;